Airfield :
LOGIN :

Register | Disclaimer

   EN    FR    IT 

 










Legend :    VFR   Marginal VFR   IFR   Intensive IFR   Very Intensive IFR
Visi :
Ceiling :
>= 8 km
>= 3000ft
5 to 8 km
1000 to 3000 ft
1500m to 5 km
500 to 1000 ft
800 to 1500m
200 to 500 ft
< 800m
< 200 ft
Symbols :   Thunderstorms  Fog  Heavy snow  Heavy precipitations  Wind > 20 kt
SIGMETs :     Misc.  Thunderstorms  Icing  Turbulence  Mountain Waves  Volcanic Ashes







- Airport Elevation : 545 ft
- IATA code : PZY


LZPP - Piešťany

CURRENT METAR :
  • 230730Z 31008KT 9999 FEW026 SCT050 10/03 Q1023

EXPIRED METARs :
  • 230700Z 30007KT 9999 FEW025 SCT046 09/05 Q1024
  • 230630Z 28004KT 9999 SCT046 09/05 Q1024
  • 230600Z 29006KT 9999 FEW025 BKN050 09/05 Q1024
  • 230530Z 30005KT 9999 FEW027 BKN050 09/05 Q1024
  • 230500Z 33007KT 9999 BKN043 09/05 Q1024

TAF TAF LZPP
Valid from the 23 at 06:00 until the 23 at 15:00 UTC


230500Z 2306/2315 34008KT 9999 SCT037 BKN045
BECMG 2307/2309 CAVOK
BECMG 2313/2315 31010G22KT SCT040 BKN060
No reported NOTAMs for that airfield.



MET'MAP, your aeronautical weather chart ! - Copyright ORBIFLY December 2007 - Disclaimer

ORBIFLY MET'MAP TEAM :

Programming & Development : Alexandra Zaïnal
Concept & Development : Baudouin d'Aumeries
Co-Development & Prog : Marc-Olivier Méhu
Technical & hardware support : Manuel Goepfert

Contact : metmap@orbifly.com




SOURCES & CREDITS :

   NOAA